Time,TemperatureF,DewpointF,PressureIn,WindDirection,WindDirectionDegrees,WindSpeedMPH,WindSpeedGustMPH,Humidity,HourlyPrecipIn,Conditions,Clouds,dailyrainin,SoftwareType,DateUTC
2013-07-16 00:01:00,71.6,63.6,29.68,ENE,71,2.0,3.0,76,0.49,,,0.00,VWS V14.01,2013-07-16 07:01:00,
2013-07-16 00:06:00,70.8,63.6,29.70,NE,50,3.0,3.0,78,0.48,,,0.00,VWS V14.01,2013-07-16 07:06:00,
2013-07-16 00:11:00,70.5,64.0,29.71,NNE,32,4.0,4.0,80,0.48,,,0.00,VWS V14.01,2013-07-16 07:11:00,
2013-07-16 00:16:00,70.2,64.1,29.72,North,5,5.0,6.0,81,0.47,,,0.00,VWS V14.01,2013-07-16 07:16:00,
2013-07-16 00:21:00,70.2,63.4,29.72,North,355,5.0,7.0,79,0.46,,,0.00,VWS V14.01,2013-07-16 07:21:00,
2013-07-16 00:26:00,70.5,63.3,29.73,NE,41,3.0,6.0,78,0.36,,,0.00,VWS V14.01,2013-07-16 07:26:00,
2013-07-16 00:31:00,70.5,63.7,29.74,ENE,61,5.0,6.0,79,0.29,,,0.00,VWS V14.01,2013-07-16 07:31:00,
2013-07-16 00:36:00,70.5,63.7,29.74,NNE,15,4.0,4.0,79,0.23,,,0.00,VWS V14.01,2013-07-16 07:36:00,
2013-07-16 00:41:00,70.5,63.3,29.75,North,350,4.0,5.0,78,0.13,,,0.00,VWS V14.01,2013-07-16 07:41:00,
2013-07-16 00:51:00,70.8,64.3,29.75,NNW,329,2.0,9.0,80,0.01,,,0.00,VWS V14.01,2013-07-16 07:51:00,
2013-07-16 00:56:00,70.8,64.3,29.75,North,5,6.0,14.0,80,0.00,,,0.00,VWS V14.01,2013-07-16 07:56:00,
2013-07-16 01:01:00,70.7,63.5,29.74,North,5,9.0,11.0,78,0.00,,,0.00,VWS V14.01,2013-07-16 08:01:00,
2013-07-16 01:06:00,70.7,63.1,29.74,NE,42,3.0,3.0,77,0.00,,,0.00,VWS V14.01,2013-07-16 08:06:00,
2013-07-16 01:11:00,70.7,63.5,29.74,NNE,20,3.0,5.0,78,0.00,,,0.00,VWS V14.01,2013-07-16 08:11:00,
2013-07-16 01:16:00,70.4,63.6,29.74,NNE,15,3.0,4.0,79,0.00,,,0.00,VWS V14.01,2013-07-16 08:16:00,
2013-07-16 01:21:00,70.2,63.8,29.75,NNE,26,2.0,2.0,80,0.00,,,0.00,VWS V14.01,2013-07-16 08:21:00,
2013-07-16 01:26:00,70.2,63.8,29.75,NNE,19,4.0,6.0,80,0.00,,,0.00,VWS V14.01,2013-07-16 08:26:00,
2013-07-16 01:31:00,70.4,63.9,29.75,North,360,1.0,1.0,80,0.00,,,0.00,VWS V14.01,2013-07-16 08:31:00,
2013-07-16 01:36:00,70.4,64.3,29.75,NNW,346,4.0,4.0,81,0.00,,,0.00,VWS V14.01,2013-07-16 08:36:00,
2013-07-16 01:41:00,70.5,64.8,29.74,North,10,2.0,3.0,82,0.00,,,0.00,VWS V14.01,2013-07-16 08:41:00,
2013-07-16 01:46:00,70.7,64.9,29.74,North,350,4.0,6.0,82,0.00,,,0.00,VWS V14.01,2013-07-16 08:46:00,
2013-07-16 01:51:00,70.8,65.0,29.74,North,355,5.0,8.0,82,0.00,,,0.00,VWS V14.01,2013-07-16 08:51:00,
2013-07-16 01:56:00,70.8,64.7,29.73,NNE,15,7.0,7.0,81,0.00,,,0.00,VWS V14.01,2013-07-16 08:56:00,
2013-07-16 02:01:00,71.0,64.5,29.73,NNW,342,3.0,4.0,80,0.00,,,0.00,VWS V14.01,2013-07-16 09:01:00,
2013-07-16 02:06:00,71.3,64.8,29.73,NNW,341,2.0,3.0,80,0.00,,,0.00,VWS V14.01,2013-07-16 09:06:00,
2013-07-16 02:11:00,71.3,64.8,29.73,North,350,7.0,7.0,80,0.00,,,0.00,VWS V14.01,2013-07-16 09:11:00,
2013-07-16 02:16:00,71.4,64.9,29.73,NNW,333,7.0,7.0,80,0.00,,,0.00,VWS V14.01,2013-07-16 09:16:00,
2013-07-16 02:21:00,71.5,64.7,29.72,NNW,342,4.0,6.0,79,0.00,,,0.00,VWS V14.01,2013-07-16 09:21:00,
2013-07-16 02:26:00,71.7,64.5,29.72,NNW,342,5.0,8.0,78,0.00,,,0.00,VWS V14.01,2013-07-16 09:26:00,
2013-07-16 02:31:00,72.0,64.0,29.72,North,355,5.0,7.0,76,0.00,,,0.00,VWS V14.01,2013-07-16 09:31:00,
2013-07-16 02:36:00,72.6,63.5,29.72,NNW,331,8.0,8.0,73,0.00,,,0.00,VWS V14.01,2013-07-16 09:36:00,
2013-07-16 02:41:00,73.2,64.4,29.72,North,355,9.0,9.0,74,0.00,,,0.00,VWS V14.01,2013-07-16 09:41:00,
2013-07-16 02:46:00,73.0,64.2,29.71,NNW,343,7.0,10.0,74,0.00,,,0.00,VWS V14.01,2013-07-16 09:46:00,
2013-07-16 02:51:00,73.1,63.5,29.71,NNW,344,7.0,7.0,72,0.00,,,0.00,VWS V14.01,2013-07-16 09:51:00,
2013-07-16 02:57:00,73.2,64.4,29.71,NNW,343,6.0,8.0,74,0.00,,,0.00,VWS V14.01,2013-07-16 09:57:00,
2013-07-16 03:02:00,73.0,64.2,29.71,NNW,342,5.0,5.0,74,0.00,,,0.00,VWS V14.01,2013-07-16 10:02:00,
2013-07-16 03:07:00,72.8,64.8,29.71,NNE,21,4.0,4.0,76,0.00,,,0.00,VWS V14.01,2013-07-16 10:07:00,
2013-07-16 03:12:00,72.8,64.4,29.72,NW,324,4.0,6.0,75,0.00,,,0.00,VWS V14.01,2013-07-16 10:12:00,
2013-07-16 03:17:00,72.9,64.1,29.72,NNW,347,4.0,7.0,74,0.00,,,0.00,VWS V14.01,2013-07-16 10:17:00,
2013-07-16 03:22:00,73.0,64.2,29.72,NW,308,4.0,8.0,74,0.00,,,0.00,VWS V14.01,2013-07-16 10:22:00,
2013-07-16 03:27:00,73.2,64.4,29.72,North,350,5.0,7.0,74,0.00,,,0.00,VWS V14.01,2013-07-16 10:27:00,
2013-07-16 03:32:00,73.2,64.4,29.72,NNW,331,4.0,8.0,74,0.00,,,0.00,VWS V14.01,2013-07-16 10:32:00,
2013-07-16 03:37:00,73.3,64.9,29.72,North,351,5.0,7.0,75,0.00,,,0.00,VWS V14.01,2013-07-16 10:37:00,
2013-07-16 03:42:00,73.2,65.2,29.72,North,360,1.0,3.0,76,0.00,,,0.00,VWS V14.01,2013-07-16 10:42:00,
2013-07-16 03:47:00,72.8,65.9,29.73,North,360,0.0,0.0,79,0.01,,,0.01,VWS V14.01,2013-07-16 10:47:00,
2013-07-16 03:52:00,72.3,65.8,29.73,North,360,0.0,0.0,80,0.01,,,0.01,VWS V14.01,2013-07-16 10:52:00,
2013-07-16 03:57:00,72.1,66.3,29.73,North,355,2.0,2.0,82,0.01,,,0.01,VWS V14.01,2013-07-16 10:57:00,
2013-07-16 04:02:00,71.8,66.4,29.74,NNW,342,3.0,4.0,83,0.01,,,0.01,VWS V14.01,2013-07-16 11:02:00,
2013-07-16 04:07:00,71.7,66.3,29.74,North,360,4.0,4.0,83,0.01,,,0.01,VWS V14.01,2013-07-16 11:07:00,
2013-07-16 04:12:00,71.9,65.8,29.74,NNE,17,3.0,5.0,81,0.01,,,0.01,VWS V14.01,2013-07-16 11:12:00,
2013-07-16 04:17:00,72.4,65.5,29.74,NE,42,1.0,1.0,79,0.01,,,0.01,VWS V14.01,2013-07-16 11:17:00,
2013-07-16 04:22:00,72.5,66.0,29.74,NE,44,0.0,2.0,80,0.01,,,0.01,VWS V14.01,2013-07-16 11:22:00,
2013-07-16 04:27:00,72.5,65.6,29.74,NE,44,0.0,1.0,79,0.01,,,0.01,VWS V14.01,2013-07-16 11:27:00,
2013-07-16 04:32:00,72.6,65.7,29.75,North,5,2.0,2.0,79,0.01,,,0.01,VWS V14.01,2013-07-16 11:32:00,
2013-07-16 04:37:00,72.5,65.6,29.74,North,355,4.0,4.0,79,0.01,,,0.01,VWS V14.01,2013-07-16 11:37:00,
2013-07-16 04:42:00,72.3,65.8,29.74,North,355,2.0,4.0,80,0.01,,,0.01,VWS V14.01,2013-07-16 11:42:00,
2013-07-16 04:47:00,72.1,65.9,29.74,North,360,0.0,2.0,81,0.00,,,0.01,VWS V14.01,2013-07-16 11:47:00,
2013-07-16 04:52:00,71.9,66.1,29.74,North,360,1.0,1.0,82,0.00,,,0.01,VWS V14.01,2013-07-16 11:52:00,
2013-07-16 04:57:00,71.8,66.4,29.74,North,360,0.0,0.0,83,0.00,,,0.01,VWS V14.01,2013-07-16 11:57:00,
2013-07-16 05:02:00,71.6,66.5,29.74,North,360,0.0,0.0,84,0.00,,,0.01,VWS V14.01,2013-07-16 12:02:00,
2013-07-16 05:07:00,71.3,66.6,29.75,NNW,348,1.0,2.0,85,0.00,,,0.01,VWS V14.01,2013-07-16 12:07:00,
2013-07-16 05:12:00,71.2,66.1,29.75,NW,321,3.0,5.0,84,0.00,,,0.01,VWS V14.01,2013-07-16 12:12:00,
2013-07-16 05:17:00,71.4,66.0,29.74,NW,326,1.0,2.0,83,0.00,,,0.01,VWS V14.01,2013-07-16 12:17:00,
2013-07-16 05:22:00,71.5,66.4,29.74,NW,326,0.0,2.0,84,0.00,,,0.01,VWS V14.01,2013-07-16 12:22:00,
2013-07-16 05:27:00,71.5,66.8,29.74,NW,326,0.0,0.0,85,0.01,,,0.02,VWS V14.01,2013-07-16 12:27:00,
2013-07-16 05:32:00,71.1,66.7,29.74,NW,326,0.0,1.0,86,0.01,,,0.02,VWS V14.01,2013-07-16 12:32:00,
2013-07-16 05:37:00,70.9,66.8,29.74,NNW,335,2.0,4.0,87,0.01,,,0.02,VWS V14.01,2013-07-16 12:37:00,
2013-07-16 05:42:00,70.7,66.7,29.74,North,355,1.0,3.0,87,0.01,,,0.02,VWS V14.01,2013-07-16 12:42:00,
2013-07-16 05:47:00,70.7,66.7,29.75,NNW,348,5.0,5.0,87,0.01,,,0.02,VWS V14.01,2013-07-16 12:47:00,
2013-07-16 05:52:00,70.6,66.6,29.75,NW,318,3.0,5.0,87,0.01,,,0.02,VWS V14.01,2013-07-16 12:52:00,
2013-07-16 05:57:00,70.8,66.7,29.75,NW,322,0.0,0.0,87,0.01,,,0.02,VWS V14.01,2013-07-16 12:57:00,
2013-07-16 06:02:00,70.9,66.8,29.75,NW,322,0.0,1.0,87,0.01,,,0.02,VWS V14.01,2013-07-16 13:02:00,
2013-07-16 06:07:00,71.0,67.3,29.75,NW,322,0.0,1.0,88,0.01,,,0.02,VWS V14.01,2013-07-16 13:07:00,
2013-07-16 06:12:00,71.3,67.2,29.75,NW,322,0.0,1.0,87,0.01,,,0.02,VWS V14.01,2013-07-16 13:12:00,
2013-07-16 06:17:00,71.8,67.1,29.75,NNW,331,2.0,2.0,85,0.01,,,0.02,VWS V14.01,2013-07-16 13:17:00,
2013-07-16 06:22:00,72.2,67.4,29.75,WNW,290,0.0,0.0,85,0.01,,,0.02,VWS V14.01,2013-07-16 13:22:00,
2013-07-16 06:27:00,72.4,67.6,29.76,NW,321,0.0,1.0,85,0.00,,,0.02,VWS V14.01,2013-07-16 13:27:00,
2013-07-16 06:32:00,72.5,67.4,29.75,NW,321,0.0,0.0,84,0.00,,,0.02,VWS V14.01,2013-07-16 13:32:00,
2013-07-16 06:37:00,73.0,67.2,29.76,NW,321,0.0,1.0,82,0.00,,,0.02,VWS V14.01,2013-07-16 13:37:00,
2013-07-16 06:42:00,72.8,67.7,29.76,NW,321,0.0,1.0,84,0.00,,,0.02,VWS V14.01,2013-07-16 13:42:00,
2013-07-16 06:47:00,72.5,67.7,29.76,NNE,23,1.0,2.0,85,0.00,,,0.02,VWS V14.01,2013-07-16 13:47:00,
2013-07-16 06:52:00,72.2,67.8,29.77,NNE,28,1.0,1.0,86,0.00,,,0.02,VWS V14.01,2013-07-16 13:52:00,
2013-07-16 06:57:00,72.0,67.9,29.77,NE,45,0.0,1.0,87,0.00,,,0.02,VWS V14.01,2013-07-16 13:57:00,
2013-07-16 07:02:00,72.0,68.3,29.77,NE,45,0.0,0.0,88,0.00,,,0.02,VWS V14.01,2013-07-16 14:02:00,
2013-07-16 07:07:00,72.0,67.9,29.77,NE,45,0.0,0.0,87,0.00,,,0.02,VWS V14.01,2013-07-16 14:07:00,
2013-07-16 07:12:00,72.1,68.0,29.78,NE,46,0.0,0.0,87,0.00,,,0.02,VWS V14.01,2013-07-16 14:12:00,
2013-07-16 07:17:00,72.3,67.5,29.78,NNW,342,0.0,3.0,85,0.00,,,0.02,VWS V14.01,2013-07-16 14:17:00,
2013-07-16 07:22:00,72.6,67.2,29.78,North,349,3.0,5.0,83,0.00,,,0.02,VWS V14.01,2013-07-16 14:22:00,
2013-07-16 07:27:00,72.8,67.3,29.79,NW,306,4.0,6.0,83,0.00,,,0.02,VWS V14.01,2013-07-16 14:27:00,
2013-07-16 07:32:00,72.9,66.7,29.79,NNW,331,2.0,3.0,81,0.00,,,0.02,VWS V14.01,2013-07-16 14:32:00,
2013-07-16 07:37:00,73.1,67.3,29.78,NW,322,2.0,6.0,82,0.00,,,0.02,VWS V14.01,2013-07-16 14:37:00,
2013-07-16 07:42:00,73.2,67.4,29.79,North,355,5.0,6.0,82,0.00,,,0.02,VWS V14.01,2013-07-16 14:42:00,
2013-07-16 07:47:00,73.2,67.7,29.79,North,349,3.0,6.0,83,0.00,,,0.02,VWS V14.01,2013-07-16 14:47:00,
2013-07-16 07:52:00,73.1,67.6,29.78,North,349,3.0,5.0,83,0.00,,,0.02,VWS V14.01,2013-07-16 14:52:00,
2013-07-16 07:57:00,73.4,67.9,29.79,NNE,26,2.0,4.0,83,0.00,,,0.02,VWS V14.01,2013-07-16 14:57:00,
2013-07-16 08:02:00,73.1,68.3,29.79,NNW,331,2.0,6.0,85,0.00,,,0.02,VWS V14.01,2013-07-16 15:02:00,
2013-07-16 08:07:00,72.7,68.3,29.80,NNW,340,4.0,5.0,86,0.00,,,0.02,VWS V14.01,2013-07-16 15:07:00,
2013-07-16 08:12:00,72.8,68.4,29.80,North,360,4.0,6.0,86,0.00,,,0.02,VWS V14.01,2013-07-16 15:12:00,
2013-07-16 08:17:00,73.0,68.6,29.80,NNW,327,3.0,3.0,86,0.00,,,0.02,VWS V14.01,2013-07-16 15:17:00,
2013-07-16 08:22:00,73.3,68.5,29.80,NNW,327,2.0,3.0,85,0.00,,,0.02,VWS V14.01,2013-07-16 15:22:00,
2013-07-16 08:27:00,73.7,68.6,29.79,NNW,340,6.0,6.0,84,0.00,,,0.02,VWS V14.01,2013-07-16 15:27:00,
2013-07-16 08:32:00,74.1,69.0,29.80,NW,317,3.0,5.0,84,0.00,,,0.02,VWS V14.01,2013-07-16 15:32:00,
2013-07-16 08:37:00,74.5,69.0,29.80,NW,315,3.0,5.0,83,0.00,,,0.02,VWS V14.01,2013-07-16 15:37:00,
2013-07-16 08:42:00,75.1,69.2,29.80,NNW,331,3.0,6.0,82,0.00,,,0.02,VWS V14.01,2013-07-16 15:42:00,
2013-07-16 08:47:00,76.4,69.0,29.80,NNW,342,6.0,7.0,78,0.00,,,0.02,VWS V14.01,2013-07-16 15:47:00,
2013-07-16 08:52:00,77.2,68.7,29.80,North,355,0.0,5.0,75,0.00,,,0.02,VWS V14.01,2013-07-16 15:52:00,
2013-07-16 08:57:00,78.2,67.6,29.80,NNE,13,4.0,7.0,70,0.00,,,0.02,VWS V14.01,2013-07-16 15:57:00,
2013-07-16 09:02:00,78.4,67.4,29.80,NW,321,6.0,7.0,69,0.00,,,0.02,VWS V14.01,2013-07-16 16:02:00,
2013-07-16 09:07:00,78.8,67.4,29.80,North,360,4.0,5.0,68,0.00,,,0.02,VWS V14.01,2013-07-16 16:07:00,
2013-07-16 09:12:00,79.1,67.2,29.80,North,5,4.0,4.0,67,0.00,,,0.02,VWS V14.01,2013-07-16 16:12:00,
2013-07-16 09:17:00,79.3,65.6,29.80,North,360,3.0,7.0,63,0.00,,,0.02,VWS V14.01,2013-07-16 16:17:00,
2013-07-16 09:22:00,79.4,66.2,29.80,NW,304,0.0,4.0,64,0.00,,,0.02,VWS V14.01,2013-07-16 16:22:00,
2013-07-16 09:27:00,80.2,66.9,29.80,NNW,339,0.0,2.0,64,0.00,,,0.02,VWS V14.01,2013-07-16 16:27:00,
2013-07-16 09:32:00,80.9,66.2,29.80,WNW,300,2.0,5.0,61,0.00,,,0.02,VWS V14.01,2013-07-16 16:32:00,
2013-07-16 09:37:00,81.8,66.1,29.80,NNW,339,2.0,5.0,59,0.00,,,0.02,VWS V14.01,2013-07-16 16:37:00,
2013-07-16 09:42:00,82.8,67.0,29.81,North,350,2.0,4.0,59,0.00,,,0.02,VWS V14.01,2013-07-16 16:42:00,
2013-07-16 09:47:00,83.7,65.3,29.80,NW,317,2.0,4.0,54,0.00,,,0.02,VWS V14.01,2013-07-16 16:47:00,
2013-07-16 09:52:00,84.0,63.9,29.81,WNW,283,0.0,3.0,51,0.00,,,0.02,VWS V14.01,2013-07-16 16:52:00,
2013-07-16 09:57:00,84.1,64.0,29.81,NW,307,0.0,1.0,51,0.00,,,0.02,VWS V14.01,2013-07-16 16:57:00,
2013-07-16 10:02:00,84.5,64.4,29.81,WSW,238,1.0,4.0,51,0.00,,,0.02,VWS V14.01,2013-07-16 17:02:00,
2013-07-16 10:07:00,85.5,65.9,29.81,WSW,237,1.0,4.0,52,0.00,,,0.02,VWS V14.01,2013-07-16 17:07:00,
2013-07-16 10:12:00,85.3,64.0,29.81,SW,223,0.0,5.0,49,0.00,,,0.02,VWS V14.01,2013-07-16 17:12:00,
2013-07-16 10:17:00,84.8,63.5,29.81,SW,223,0.0,1.0,49,0.00,,,0.02,VWS V14.01,2013-07-16 17:17:00,
2013-07-16 10:22:00,84.4,64.3,29.81,SW,223,0.0,1.0,51,0.00,,,0.02,VWS V14.01,2013-07-16 17:22:00,
2013-07-16 10:27:00,84.7,65.1,29.81,WSW,250,0.0,3.0,52,0.00,,,0.02,VWS V14.01,2013-07-16 17:27:00,
2013-07-16 10:32:00,85.2,65.1,29.81,SW,227,0.0,3.0,51,0.00,,,0.02,VWS V14.01,2013-07-16 17:32:00,
2013-07-16 10:37:00,84.8,64.1,29.81,South,190,0.0,4.0,50,0.00,,,0.02,VWS V14.01,2013-07-16 17:37:00,
2013-07-16 10:42:00,85.0,65.4,29.81,SSW,211,7.0,7.0,52,0.00,,,0.02,VWS V14.01,2013-07-16 17:42:00,
2013-07-16 10:47:00,84.9,64.2,29.81,SSW,208,2.0,6.0,50,0.00,,,0.02,VWS V14.01,2013-07-16 17:47:00,
2013-07-16 10:52:00,84.7,65.1,29.80,SSW,199,1.0,3.0,52,0.00,,,0.02,VWS V14.01,2013-07-16 17:52:00,
2013-07-16 10:57:00,84.6,63.9,29.80,SSW,196,0.0,3.0,50,0.00,,,0.02,VWS V14.01,2013-07-16 17:57:00,
2013-07-16 11:02:00,83.7,64.8,29.81,SE,135,0.0,1.0,53,0.00,,,0.02,VWS V14.01,2013-07-16 18:02:00,
2013-07-16 11:07:00,84.3,64.2,29.81,South,169,0.0,1.0,51,0.00,,,0.02,VWS V14.01,2013-07-16 18:07:00,
2013-07-16 11:12:00,84.3,65.3,29.81,South,169,0.0,1.0,53,0.00,,,0.02,VWS V14.01,2013-07-16 18:12:00,
2013-07-16 11:17:00,84.2,65.8,29.81,South,173,0.0,2.0,54,0.00,,,0.02,VWS V14.01,2013-07-16 18:17:00,
2013-07-16 11:22:00,84.4,64.3,29.81,SSW,198,2.0,4.0,51,0.00,,,0.02,VWS V14.01,2013-07-16 18:22:00,
2013-07-16 11:31:00,84.2,64.7,29.81,SW,229,0.0,3.0,52,0.00,,,0.02,VWS V14.01,2013-07-16 18:31:00,
2013-07-16 11:36:00,84.3,64.2,29.81,SW,229,0.0,2.0,51,0.00,,,0.02,VWS V14.01,2013-07-16 18:36:00,
2013-07-16 11:41:00,84.2,63.6,29.81,SW,219,0.0,5.0,50,0.00,,,0.02,VWS V14.01,2013-07-16 18:41:00,
2013-07-16 11:46:00,84.2,65.2,29.81,SSW,199,0.0,3.0,53,0.00,,,0.02,VWS V14.01,2013-07-16 18:46:00,
2013-07-16 11:51:00,84.2,64.1,29.81,SSW,200,0.0,2.0,51,0.00,,,0.02,VWS V14.01,2013-07-16 18:51:00,
2013-07-16 11:56:00,84.2,64.1,29.81,SSW,200,0.0,1.0,51,0.00,,,0.02,VWS V14.01,2013-07-16 18:56:00,
2013-07-16 12:01:00,83.7,63.7,29.80,SSW,200,0.0,1.0,51,0.00,,,0.02,VWS V14.01,2013-07-16 19:01:00,
2013-07-16 12:06:00,84.1,63.5,29.81,SE,129,0.0,4.0,50,0.00,,,0.02,VWS V14.01,2013-07-16 19:06:00,
2013-07-16 12:11:00,84.1,62.9,29.80,SSE,163,0.0,5.0,49,0.00,,,0.02,VWS V14.01,2013-07-16 19:11:00,
2013-07-16 12:16:00,84.5,63.3,29.80,South,187,0.0,5.0,49,0.00,,,0.02,VWS V14.01,2013-07-16 19:16:00,
2013-07-16 12:21:00,84.7,62.9,29.80,NE,55,0.0,2.0,48,0.00,,,0.02,VWS V14.01,2013-07-16 19:21:00,
2013-07-16 12:26:00,84.0,63.4,29.80,NE,55,0.0,2.0,50,0.00,,,0.02,VWS V14.01,2013-07-16 19:26:00,
2013-07-16 12:31:00,84.5,63.8,29.80,NE,51,0.0,2.0,50,0.00,,,0.02,VWS V14.01,2013-07-16 19:31:00,
2013-07-16 12:36:00,84.7,64.6,29.80,NE,55,0.0,2.0,51,0.00,,,0.02,VWS V14.01,2013-07-16 19:36:00,
2013-07-16 12:41:00,84.5,63.3,29.80,East,91,0.0,4.0,49,0.00,,,0.02,VWS V14.01,2013-07-16 19:41:00,
2013-07-16 12:46:00,84.4,63.2,29.80,East,100,4.0,5.0,49,0.00,,,0.02,VWS V14.01,2013-07-16 19:46:00,
2013-07-16 12:51:00,84.6,63.3,29.80,East,100,1.0,4.0,49,0.00,,,0.02,VWS V14.01,2013-07-16 19:51:00,
2013-07-16 12:56:00,85.2,63.9,29.79,ESE,123,4.0,4.0,49,0.00,,,0.02,VWS V14.01,2013-07-16 19:56:00,
2013-07-16 13:01:00,86.1,64.7,29.79,SSE,161,1.0,5.0,49,0.00,,,0.02,VWS V14.01,2013-07-16 20:01:00,
2013-07-16 13:06:00,86.9,63.7,29.79,SSE,149,4.0,6.0,46,0.00,,,0.02,VWS V14.01,2013-07-16 20:06:00,
2013-07-16 13:11:00,86.5,63.9,29.79,SSE,149,0.0,5.0,47,0.00,,,0.02,VWS V14.01,2013-07-16 20:11:00,
2013-07-16 13:16:00,85.6,63.7,29.79,SE,131,4.0,6.0,48,0.00,,,0.02,VWS V14.01,2013-07-16 20:16:00,
2013-07-16 13:21:00,85.3,64.0,29.79,ESE,111,0.0,4.0,49,0.00,,,0.02,VWS V14.01,2013-07-16 20:21:00,
2013-07-16 13:26:00,85.0,63.1,29.79,ESE,111,0.0,4.0,48,0.00,,,0.02,VWS V14.01,2013-07-16 20:26:00,
2013-07-16 13:31:00,85.2,63.3,29.79,ESE,111,1.0,4.0,48,0.00,,,0.02,VWS V14.01,2013-07-16 20:31:00,
2013-07-16 13:36:00,85.4,64.1,29.79,SE,124,0.0,5.0,49,0.00,,,0.02,VWS V14.01,2013-07-16 20:36:00,
2013-07-16 13:41:00,85.8,63.3,29.79,SE,141,0.0,5.0,47,0.00,,,0.02,VWS V14.01,2013-07-16 20:41:00,
2013-07-16 13:46:00,85.9,64.0,29.79,SE,146,1.0,5.0,48,0.00,,,0.02,VWS V14.01,2013-07-16 20:46:00,
2013-07-16 13:51:00,86.3,64.3,29.79,NE,49,0.0,5.0,48,0.00,,,0.02,VWS V14.01,2013-07-16 20:51:00,
2013-07-16 13:56:00,86.8,64.2,29.79,NNE,26,1.0,3.0,47,0.00,,,0.02,VWS V14.01,2013-07-16 20:56:00,
2013-07-16 14:01:00,87.4,63.5,29.78,NW,325,0.0,4.0,45,0.00,,,0.02,VWS V14.01,2013-07-16 21:01:00,
2013-07-16 14:06:00,87.2,63.3,29.78,NW,325,0.0,2.0,45,0.00,,,0.02,VWS V14.01,2013-07-16 21:06:00,
2013-07-16 14:11:00,87.6,63.7,29.78,NW,325,0.0,1.0,45,0.00,,,0.02,VWS V14.01,2013-07-16 21:11:00,
2013-07-16 14:16:00,86.5,63.3,29.78,East,100,0.0,4.0,46,0.00,,,0.02,VWS V14.01,2013-07-16 21:16:00,
2013-07-16 14:21:00,87.5,63.6,29.78,East,99,0.0,2.0,45,0.00,,,0.02,VWS V14.01,2013-07-16 21:21:00,
2013-07-16 14:26:00,86.9,64.3,29.78,NNW,340,1.0,4.0,47,0.00,,,0.02,VWS V14.01,2013-07-16 21:26:00,
2013-07-16 14:31:00,87.2,63.3,29.78,NW,324,0.0,5.0,45,0.00,,,0.02,VWS V14.01,2013-07-16 21:31:00,
2013-07-16 14:36:00,87.4,64.1,29.78,NW,323,0.0,2.0,46,0.00,,,0.02,VWS V14.01,2013-07-16 21:36:00,
2013-07-16 14:41:00,88.2,65.4,29.78,WSW,246,1.0,3.0,47,0.00,,,0.02,VWS V14.01,2013-07-16 21:41:00,
2013-07-16 14:46:00,88.5,65.7,29.78,North,5,4.0,5.0,47,0.00,,,0.02,VWS V14.01,2013-07-16 21:46:00,
2013-07-16 14:51:00,87.1,64.4,29.78,ENE,69,0.0,5.0,47,0.00,,,0.02,VWS V14.01,2013-07-16 21:51:00,
2013-07-16 14:56:00,87.6,64.9,29.78,WNW,298,0.0,3.0,47,0.00,,,0.02,VWS V14.01,2013-07-16 21:56:00,
2013-07-16 15:01:00,87.5,64.8,29.77,NNW,336,5.0,6.0,47,0.00,,,0.02,VWS V14.01,2013-07-16 22:01:00,
2013-07-16 15:06:00,87.4,65.3,29.77,North,5,3.0,6.0,48,0.00,,,0.02,VWS V14.01,2013-07-16 22:06:00,
2013-07-16 15:11:00,87.2,65.1,29.77,NNW,333,4.0,6.0,48,0.00,,,0.02,VWS V14.01,2013-07-16 22:11:00,
2013-07-16 15:16:00,87.0,65.6,29.77,NNE,15,0.0,7.0,49,0.00,,,0.02,VWS V14.01,2013-07-16 22:16:00,
2013-07-16 15:21:00,86.9,66.0,29.77,NNE,28,4.0,7.0,50,0.00,,,0.02,VWS V14.01,2013-07-16 22:21:00,
2013-07-16 15:26:00,86.7,65.3,29.77,North,349,5.0,7.0,49,0.00,,,0.02,VWS V14.01,2013-07-16 22:26:00,
2013-07-16 15:31:00,87.0,66.7,29.77,NNE,30,4.0,10.0,51,0.00,,,0.02,VWS V14.01,2013-07-16 22:31:00,
2013-07-16 15:36:00,86.9,64.9,29.77,North,360,0.0,6.0,48,0.00,,,0.02,VWS V14.01,2013-07-16 22:36:00,
2013-07-16 15:41:00,87.0,65.0,29.77,North,5,1.0,4.0,48,0.00,,,0.02,VWS V14.01,2013-07-16 22:41:00,
2013-07-16 15:46:00,87.0,64.3,29.77,North,355,1.0,3.0,47,0.00,,,0.02,VWS V14.01,2013-07-16 22:46:00,
2013-07-16 15:51:00,86.7,65.3,29.77,NE,38,1.0,5.0,49,0.00,,,0.02,VWS V14.01,2013-07-16 22:51:00,
2013-07-16 15:56:00,86.8,65.4,29.77,NNW,338,4.0,7.0,49,0.00,,,0.02,VWS V14.01,2013-07-16 22:56:00,
2013-07-16 16:01:00,86.8,65.4,29.77,NNW,329,3.0,7.0,49,0.00,,,0.02,VWS V14.01,2013-07-16 23:01:00,
2013-07-16 16:06:00,86.6,65.8,29.77,North,355,3.0,7.0,50,0.00,,,0.02,VWS V14.01,2013-07-16 23:06:00,
2013-07-16 16:11:00,86.4,65.0,29.77,NE,54,0.0,6.0,49,0.00,,,0.02,VWS V14.01,2013-07-16 23:11:00,
2013-07-16 16:16:00,86.3,65.5,29.77,NNE,18,1.0,5.0,50,0.00,,,0.02,VWS V14.01,2013-07-16 23:16:00,
2013-07-16 16:21:00,86.4,65.6,29.77,NE,55,0.0,5.0,50,0.00,,,0.02,VWS V14.01,2013-07-16 23:21:00,
2013-07-16 16:26:00,86.5,65.7,29.77,NE,49,1.0,4.0,50,0.00,,,0.02,VWS V14.01,2013-07-16 23:26:00,
2013-07-16 16:31:00,86.5,65.7,29.77,NNE,33,0.0,3.0,50,0.00,,,0.02,VWS V14.01,2013-07-16 23:31:00,
2013-07-16 16:36:00,86.5,65.7,29.77,East,81,0.0,3.0,50,0.00,,,0.02,VWS V14.01,2013-07-16 23:36:00,
2013-07-16 16:41:00,86.4,65.6,29.77,NE,34,2.0,4.0,50,0.00,,,0.02,VWS V14.01,2013-07-16 23:41:00,
2013-07-16 16:46:00,86.1,65.9,29.77,NNE,31,3.0,4.0,51,0.00,,,0.02,VWS V14.01,2013-07-16 23:46:00,
2013-07-16 16:51:00,86.0,64.6,29.77,North,355,1.0,4.0,49,0.00,,,0.02,VWS V14.01,2013-07-16 23:51:00,
2013-07-16 16:56:00,86.1,65.3,29.77,WNW,294,2.0,3.0,50,0.00,,,0.02,VWS V14.01,2013-07-16 23:56:00,
2013-07-16 17:01:00,85.5,65.3,29.77,SSW,200,1.0,3.0,51,0.00,,,0.02,VWS V14.01,2013-07-17 00:01:00,
2013-07-16 17:06:00,85.4,65.8,29.77,SSW,206,0.0,4.0,52,0.00,,,0.02,VWS V14.01,2013-07-17 00:06:00,
2013-07-16 17:11:00,85.2,65.1,29.77,SSW,207,0.0,1.0,51,0.00,,,0.02,VWS V14.01,2013-07-17 00:11:00,
2013-07-16 17:16:00,85.3,65.7,29.78,SSW,208,0.0,1.0,52,0.00,,,0.02,VWS V14.01,2013-07-17 00:16:00,
2013-07-16 17:21:00,85.2,66.7,29.78,SSW,208,0.0,1.0,54,0.00,,,0.02,VWS V14.01,2013-07-17 00:21:00,
2013-07-16 17:26:00,85.0,65.4,29.78,WSW,256,0.0,3.0,52,0.00,,,0.02,VWS V14.01,2013-07-17 00:26:00,
2013-07-16 17:31:00,84.5,65.0,29.77,West,259,0.0,3.0,52,0.00,,,0.02,VWS V14.01,2013-07-17 00:31:00,
2013-07-16 17:36:00,84.5,65.5,29.77,NNW,348,2.0,5.0,53,0.00,,,0.02,VWS V14.01,2013-07-17 00:36:00,
2013-07-16 17:41:00,84.8,66.3,29.77,WNW,302,3.0,5.0,54,0.00,,,0.02,VWS V14.01,2013-07-17 00:41:00,
2013-07-16 17:46:00,84.9,65.3,29.78,NW,323,1.0,4.0,52,0.00,,,0.02,VWS V14.01,2013-07-17 00:46:00,
2013-07-16 17:51:00,84.8,66.3,29.78,North,351,4.0,9.0,54,0.00,,,0.02,VWS V14.01,2013-07-17 00:51:00,
2013-07-16 17:56:00,84.3,66.4,29.78,North,351,3.0,8.0,55,0.00,,,0.02,VWS V14.01,2013-07-17 00:56:00,
2013-07-16 18:01:00,84.1,65.7,29.77,North,355,4.0,8.0,54,0.00,,,0.02,VWS V14.01,2013-07-17 01:01:00,
2013-07-16 18:08:00,83.9,65.5,29.77,NNE,20,2.0,7.0,54,0.00,,,0.02,VWS V14.01,2013-07-17 01:08:00,
2013-07-16 18:13:00,83.6,66.8,29.77,NNW,342,3.0,7.0,57,0.00,,,0.02,VWS V14.01,2013-07-17 01:13:00,
2013-07-16 18:18:00,83.2,65.4,29.78,NW,323,5.0,6.0,55,0.00,,,0.02,VWS V14.01,2013-07-17 01:18:00,
2013-07-16 18:23:00,83.2,64.3,29.77,NNE,12,3.0,4.0,53,0.00,,,0.02,VWS V14.01,2013-07-17 01:23:00,
2013-07-16 18:28:00,83.1,65.3,29.77,NNE,26,3.0,6.0,55,0.00,,,0.02,VWS V14.01,2013-07-17 01:28:00,
2013-07-16 18:33:00,82.9,66.1,29.77,North,5,1.0,4.0,57,0.00,,,0.02,VWS V14.01,2013-07-17 01:33:00,
2013-07-16 18:38:00,82.7,66.4,29.77,NNE,28,0.0,5.0,58,0.00,,,0.02,VWS V14.01,2013-07-17 01:38:00,
2013-07-16 18:43:00,82.7,66.4,29.78,NNE,20,0.0,4.0,58,0.00,,,0.02,VWS V14.01,2013-07-17 01:43:00,
2013-07-16 18:48:00,82.6,65.8,29.78,North,9,0.0,3.0,57,0.00,,,0.02,VWS V14.01,2013-07-17 01:48:00,
2013-07-16 18:53:00,82.5,65.2,29.78,North,5,2.0,2.0,56,0.00,,,0.02,VWS V14.01,2013-07-17 01:53:00,
2013-07-16 18:58:00,82.5,65.2,29.78,NNW,336,2.0,2.0,56,0.00,,,0.02,VWS V14.01,2013-07-17 01:58:00,
2013-07-16 19:03:00,82.4,65.1,29.79,NNW,329,2.0,4.0,56,0.00,,,0.02,VWS V14.01,2013-07-17 02:03:00,
2013-07-16 19:08:00,82.2,65.5,29.79,NW,319,3.0,4.0,57,0.00,,,0.02,VWS V14.01,2013-07-17 02:08:00,
2013-07-16 19:13:00,82.0,65.8,29.80,NW,323,2.0,5.0,58,0.00,,,0.02,VWS V14.01,2013-07-17 02:13:00,
2013-07-16 19:18:00,81.7,66.5,29.80,NNW,333,2.0,5.0,60,0.00,,,0.02,VWS V14.01,2013-07-17 02:18:00,
2013-07-16 19:23:00,81.4,66.2,29.80,NNW,327,2.0,4.0,60,0.00,,,0.02,VWS V14.01,2013-07-17 02:23:00,
2013-07-16 19:28:00,81.3,66.1,29.80,NW,325,1.0,3.0,60,0.00,,,0.02,VWS V14.01,2013-07-17 02:28:00,
2013-07-16 19:33:00,81.4,66.2,29.80,NW,325,0.0,3.0,60,0.00,,,0.02,VWS V14.01,2013-07-17 02:33:00,
2013-07-16 19:38:00,81.5,65.8,29.80,NW,313,1.0,3.0,59,0.00,,,0.02,VWS V14.01,2013-07-17 02:38:00,
2013-07-16 19:43:00,81.4,66.2,29.81,SSW,210,3.0,5.0,60,0.00,,,0.02,VWS V14.01,2013-07-17 02:43:00,
2013-07-16 19:48:00,80.8,65.2,29.81,SSW,201,3.0,8.0,59,0.00,,,0.02,VWS V14.01,2013-07-17 02:48:00,
2013-07-16 19:53:00,80.2,65.1,29.81,WSW,258,2.0,7.0,60,0.00,,,0.02,VWS V14.01,2013-07-17 02:53:00,
2013-07-16 19:58:00,79.5,64.9,29.81,SSW,211,6.0,13.0,61,0.00,,,0.02,VWS V14.01,2013-07-17 02:58:00,
2013-07-16 20:03:00,79.0,65.3,29.82,SW,230,4.0,11.0,63,0.00,,,0.02,VWS V14.01,2013-07-17 03:03:00,
2013-07-16 20:08:00,78.7,65.5,29.82,SSW,209,3.0,9.0,64,0.00,,,0.02,VWS V14.01,2013-07-17 03:08:00,
2013-07-16 20:13:00,78.4,65.2,29.82,SW,219,4.0,9.0,64,0.00,,,0.02,VWS V14.01,2013-07-17 03:13:00,
2013-07-16 20:18:00,78.2,65.0,29.82,SSW,202,4.0,8.0,64,0.00,,,0.02,VWS V14.01,2013-07-17 03:18:00,
2013-07-16 20:23:00,77.9,64.8,29.82,SSW,198,2.0,9.0,64,0.00,,,0.02,VWS V14.01,2013-07-17 03:23:00,
2013-07-16 20:28:00,77.7,65.0,29.83,West,261,4.0,6.0,65,0.00,,,0.02,VWS V14.01,2013-07-17 03:28:00,
2013-07-16 20:33:00,77.6,64.9,29.83,West,272,5.0,8.0,65,0.00,,,0.02,VWS V14.01,2013-07-17 03:33:00,
2013-07-16 20:38:00,77.4,64.3,29.83,WSW,253,2.0,8.0,64,0.00,,,0.02,VWS V14.01,2013-07-17 03:38:00,
2013-07-16 20:43:00,77.3,64.6,29.83,WSW,241,4.0,10.0,65,0.00,,,0.02,VWS V14.01,2013-07-17 03:43:00,
2013-07-16 20:48:00,77.2,64.5,29.83,SW,233,5.0,6.0,65,0.00,,,0.02,VWS V14.01,2013-07-17 03:48:00,
2013-07-16 20:54:00,77.1,64.9,29.84,SW,234,0.0,7.0,66,0.00,,,0.02,VWS V14.01,2013-07-17 03:54:00,
2013-07-16 20:59:00,77.1,64.4,29.84,WSW,257,3.0,6.0,65,0.00,,,0.02,VWS V14.01,2013-07-17 03:59:00,
2013-07-16 21:01:00,77.1,64.4,29.84,SW,221,3.0,6.0,65,0.00,,,0.02,VWS V14.01,2013-07-17 04:01:00,
2013-07-16 21:04:00,77.1,64.4,29.84,West,266,7.0,7.0,65,0.00,,,0.02,VWS V14.01,2013-07-17 04:04:00,
2013-07-16 21:06:00,77.1,64.4,29.85,West,262,4.0,8.0,65,0.00,,,0.02,VWS V14.01,2013-07-17 04:06:00,
2013-07-16 21:11:00,77.1,64.4,29.85,SW,230,3.0,7.0,65,0.00,,,0.02,VWS V14.01,2013-07-17 04:11:00,
2013-07-16 21:16:00,77.2,64.5,29.85,WSW,241,3.0,8.0,65,0.00,,,0.02,VWS V14.01,2013-07-17 04:16:00,
2013-07-16 21:21:00,77.2,64.5,29.86,West,264,2.0,8.0,65,0.00,,,0.02,VWS V14.01,2013-07-17 04:21:00,
2013-07-16 21:26:00,77.2,64.5,29.86,SSW,207,3.0,6.0,65,0.00,,,0.02,VWS V14.01,2013-07-17 04:26:00,
2013-07-16 21:31:00,77.3,64.2,29.86,WSW,249,7.0,12.0,64,0.00,,,0.02,VWS V14.01,2013-07-17 04:31:00,
2013-07-16 21:36:00,77.4,64.7,29.87,West,269,3.0,10.0,65,0.00,,,0.02,VWS V14.01,2013-07-17 04:36:00,
2013-07-16 21:41:00,77.3,64.6,29.87,West,261,5.0,9.0,65,0.00,,,0.02,VWS V14.01,2013-07-17 04:41:00,
2013-07-16 21:46:00,77.2,65.0,29.87,SW,223,5.0,8.0,66,0.00,,,0.02,VWS V14.01,2013-07-17 04:46:00,
2013-07-16 21:51:00,77.0,65.2,29.87,WSW,244,3.0,11.0,67,0.00,,,0.02,VWS V14.01,2013-07-17 04:51:00,
2013-07-16 21:56:00,76.7,65.3,29.87,SW,225,4.0,10.0,68,0.00,,,0.02,VWS V14.01,2013-07-17 04:56:00,
2013-07-16 22:01:00,76.6,65.7,29.88,SW,235,8.0,8.0,69,0.00,,,0.02,VWS V14.01,2013-07-17 05:01:00,
2013-07-16 22:06:00,76.4,65.9,29.88,West,261,5.0,8.0,70,0.00,,,0.02,VWS V14.01,2013-07-17 05:06:00,
2013-07-16 22:11:00,76.3,65.8,29.88,West,269,3.0,8.0,70,0.00,,,0.02,VWS V14.01,2013-07-17 05:11:00,
2013-07-16 22:16:00,76.2,65.7,29.88,SW,235,2.0,8.0,70,0.00,,,0.02,VWS V14.01,2013-07-17 05:16:00,
2013-07-16 22:21:00,76.2,65.7,29.88,WSW,240,0.0,8.0,70,0.00,,,0.02,VWS V14.01,2013-07-17 05:21:00,
2013-07-16 22:24:00,76.2,65.3,29.88,WSW,252,6.0,11.0,69,0.00,,,0.02,VWS V14.01,2013-07-17 05:24:00,
2013-07-16 22:29:00,76.2,65.3,29.88,West,270,2.0,6.0,69,0.00,,,0.02,VWS V14.01,2013-07-17 05:29:00,
2013-07-16 22:34:00,76.2,65.3,29.88,SW,223,3.0,8.0,69,0.00,,,0.02,VWS V14.01,2013-07-17 05:34:00,
2013-07-16 22:39:00,76.2,65.3,29.88,SW,215,2.0,7.0,69,0.00,,,0.02,VWS V14.01,2013-07-17 05:39:00,
2013-07-16 22:44:00,76.2,65.3,29.89,West,281,4.0,7.0,69,0.00,,,0.02,VWS V14.01,2013-07-17 05:44:00,
2013-07-16 22:49:00,76.2,65.3,29.89,West,261,3.0,9.0,69,0.00,,,0.02,VWS V14.01,2013-07-17 05:49:00,
2013-07-16 22:54:00,76.2,65.3,29.89,WSW,252,2.0,6.0,69,0.00,,,0.02,VWS V14.01,2013-07-17 05:54:00,
2013-07-16 22:59:00,76.2,65.3,29.90,WNW,301,2.0,6.0,69,0.00,,,0.02,VWS V14.01,2013-07-17 05:59:00,
2013-07-16 23:04:00,76.2,65.3,29.90,West,262,0.0,3.0,69,0.00,,,0.02,VWS V14.01,2013-07-17 06:04:00,
2013-07-16 23:09:00,76.2,65.3,29.90,West,259,3.0,5.0,69,0.00,,,0.02,VWS V14.01,2013-07-17 06:09:00,
2013-07-16 23:14:00,76.1,64.8,29.90,SSW,209,0.0,5.0,68,0.00,,,0.02,VWS V14.01,2013-07-17 06:14:00,
2013-07-16 23:19:00,76.1,65.2,29.89,SW,231,2.0,6.0,69,0.00,,,0.02,VWS V14.01,2013-07-17 06:19:00,
2013-07-16 23:24:00,76.1,65.2,29.89,SW,226,3.0,6.0,69,0.00,,,0.02,VWS V14.01,2013-07-17 06:24:00,
2013-07-16 23:29:00,76.0,65.1,29.89,SW,215,1.0,7.0,69,0.00,,,0.02,VWS V14.01,2013-07-17 06:29:00,
2013-07-16 23:34:00,75.9,65.4,29.89,SSW,205,3.0,4.0,70,0.00,,,0.02,VWS V14.01,2013-07-17 06:34:00,
2013-07-16 23:39:00,75.9,65.4,29.89,SW,218,0.0,4.0,70,0.00,,,0.02,VWS V14.01,2013-07-17 06:39:00,
2013-07-16 23:44:00,75.8,65.7,29.89,WSW,240,2.0,2.0,71,0.00,,,0.02,VWS V14.01,2013-07-17 06:44:00,
2013-07-16 23:49:00,75.7,65.6,29.89,SW,236,1.0,2.0,71,0.00,,,0.02,VWS V14.01,2013-07-17 06:49:00,
2013-07-16 23:54:00,75.7,65.6,29.88,SW,236,0.0,0.0,71,0.00,,,0.02,VWS V14.01,2013-07-17 06:54:00,
2013-07-16 23:59:00,75.6,65.5,29.88,SW,236,0.0,2.0,71,0.00,,,0.02,VWS V14.01,2013-07-17 06:59:00,